Time;durP1;ratioP1;P1;durP2;ratioP2;P2;SDS_P1;SDS_P2;PMS_P1;PMS_P2;Temp;Humidity;BMP_temperature;BMP_pressure;BME280_temperature;BME280_humidity;BME280_pressure;Samples;Min_cycle;Max_cycle;Signal;HPM_P1;HPM_P2
2022/02/26 00:03:52;;;;;;;8.82;2.08;;;;;;;2.05;100.00;99360.47;10363996;28;20054;-78
2022/02/26 00:08:55;;;;;;;9.05;1.92;;;;;;;2.04;100.00;99377.38;10358583;28;20042;-77
2022/02/26 00:13:58;;;;;;;9.13;1.80;;;;;;;1.96;100.00;99382.22;10356692;28;20121;-78
2022/02/26 00:19:08;;;;;;;11.45;2.42;;;;;;;1.86;100.00;99395.16;10361542;28;20602;-78
2022/02/26 00:24:11;;;;;;;8.63;1.83;;;;;;;1.75;100.00;99386.91;10355562;28;20410;-78
2022/02/26 00:29:16;;;;;;;6.88;1.83;;;;;;;1.67;100.00;99403.25;10370141;28;20453;-77
2022/02/26 00:34:21;;;;;;;7.75;1.70;;;;;;;1.58;100.00;99407.22;10352591;28;20054;-77
2022/02/26 00:39:24;;;;;;;11.15;2.15;;;;;;;1.51;100.00;99404.03;10366343;28;20048;-78
2022/02/26 00:44:27;;;;;;;8.82;2.00;;;;;;;1.46;100.00;99406.09;10365164;28;20058;-78
2022/02/26 00:49:51;;;;;;;8.55;2.08;;;;;;;1.34;100.00;99414.69;10363664;28;20097;-78
2022/02/26 00:54:54;;;;;;;10.02;2.30;;;;;;;1.27;100.00;99418.56;10357579;28;20046;-77
2022/02/26 00:59:58;;;;;;;8.48;2.05;;;;;;;1.18;100.00;99418.09;10347598;28;20048;-78
2022/02/26 01:05:03;;;;;;;8.82;2.03;;;;;;;1.15;100.00;99422.72;10346291;28;20050;-77
2022/02/26 01:10:07;;;;;;;8.93;2.15;;;;;;;1.14;100.00;99421.84;10345918;28;20081;-78
2022/02/26 01:15:10;;;;;;;14.27;2.40;;;;;;;1.10;100.00;99438.00;10361983;28;20057;-78
2022/02/26 01:20:15;;;;;;;11.88;2.35;;;;;;;1.06;100.00;99431.97;10386833;28;20094;-77
2022/02/26 01:25:18;;;;;;;14.75;2.40;;;;;;;1.04;100.00;99434.72;10364622;28;20050;-77
2022/02/26 01:30:21;;;;;;;11.65;2.20;;;;;;;1.00;100.00;99445.56;10357996;28;20050;-77
2022/02/26 01:35:25;;;;;;;9.40;1.90;;;;;;;1.00;100.00;99454.38;10375902;28;20046;-77
2022/02/26 01:40:29;;;;;;;10.80;2.38;;;;;;;0.94;100.00;99464.44;10358899;28;20160;-77
2022/02/26 01:45:32;;;;;;;12.02;2.30;;;;;;;0.87;100.00;99463.88;10364585;28;20050;-78
2022/02/26 01:50:36;;;;;;;13.52;2.25;;;;;;;0.88;100.00;99462.94;10374561;28;20053;-77
2022/02/26 01:55:40;;;;;;;12.50;2.20;;;;;;;0.86;100.00;99467.44;10364107;28;20042;-78
2022/02/26 02:00:43;;;;;;;11.27;2.20;;;;;;;0.85;100.00;99479.88;10358468;28;20045;-77
2022/02/26 02:05:48;;;;;;;14.15;2.85;;;;;;;0.84;100.00;99477.25;10369010;28;20120;-76
2022/02/26 02:10:53;;;;;;;16.08;2.50;;;;;;;0.86;100.00;99492.19;10346104;28;20433;-78
2022/02/26 02:15:56;;;;;;;13.30;2.20;;;;;;;0.92;100.00;99488.41;10353436;28;20064;-77
2022/02/26 02:21:00;;;;;;;13.60;2.45;;;;;;;0.97;100.00;99498.78;10332629;28;20050;-78
2022/02/26 02:26:05;;;;;;;16.83;3.00;;;;;;;0.98;100.00;99493.38;10368195;28;20514;-77
2022/02/26 02:31:09;;;;;;;13.23;2.40;;;;;;;1.04;100.00;99509.03;10364447;28;20049;-78
2022/02/26 02:36:16;;;;;;;17.45;2.47;;;;;;;1.08;100.00;99499.13;10367425;28;20056;-81
2022/02/26 02:41:20;;;;;;;16.42;2.72;;;;;;;1.14;100.00;99512.06;10331373;28;20054;-61
2022/02/26 02:46:23;;;;;;;13.52;2.45;;;;;;;1.18;100.00;99500.38;10340401;28;20421;-61
2022/02/26 02:51:26;;;;;;;17.33;2.58;;;;;;;1.19;100.00;99496.81;10342121;28;20069;-60
2022/02/26 02:56:31;;;;;;;14.75;2.90;;;;;;;1.18;100.00;99504.81;10333229;28;20042;-59
2022/02/26 03:01:34;;;;;;;15.20;2.80;;;;;;;1.18;100.00;99508.34;10344866;28;20046;-61
2022/02/26 03:06:37;;;;;;;12.40;2.67;;;;;;;1.25;100.00;99510.69;10361134;28;20117;-61
2022/02/26 03:11:41;;;;;;;17.67;3.10;;;;;;;1.30;100.00;99520.16;10343363;28;20046;-61
2022/02/26 03:16:44;;;;;;;14.70;2.83;;;;;;;1.34;100.00;99512.91;10355599;28;20042;-62
2022/02/26 03:21:48;;;;;;;13.50;2.40;;;;;;;1.33;100.00;99511.19;10343666;28;20417;-62
2022/02/26 03:26:56;;;;;;;12.93;2.22;;;;;;;1.38;100.00;99517.13;10324181;28;20141;-61
2022/02/26 03:31:59;;;;;;;14.82;2.55;;;;;;;1.40;100.00;99520.56;10337812;28;20061;-61
2022/02/26 03:37:08;;;;;;;15.68;2.67;;;;;;;1.41;100.00;99526.75;10327829;28;20046;-61
2022/02/26 03:42:12;;;;;;;18.02;2.53;;;;;;;1.42;100.00;99531.97;10329567;28;20045;-61
2022/02/26 03:47:15;;;;;;;12.18;2.40;;;;;;;1.48;100.00;99533.47;10327672;28;20045;-62
2022/02/26 03:52:19;;;;;;;15.25;2.70;;;;;;;1.49;100.00;99540.50;10325258;28;20046;-61
2022/02/26 03:57:23;;;;;;;15.10;2.47;;;;;;;1.52;100.00;99546.53;10328864;28;20048;-61
2022/02/26 04:02:28;;;;;;;11.32;2.63;;;;;;;1.56;100.00;99547.22;10337739;28;20194;-59
2022/02/26 04:07:31;;;;;;;12.45;2.40;;;;;;;1.57;100.00;99548.94;10336177;28;20050;-59
2022/02/26 04:12:36;;;;;;;15.15;2.47;;;;;;;1.59;100.00;99554.19;10342853;28;20133;-61
2022/02/26 04:17:39;;;;;;;12.35;2.40;;;;;;;1.59;100.00;99557.69;10342270;28;20052;-60
2022/02/26 04:22:42;;;;;;;15.63;2.75;;;;;;;1.66;100.00;99555.59;10342634;28;20073;-61
2022/02/26 04:27:46;;;;;;;12.80;2.50;;;;;;;1.66;100.00;99563.56;10347879;28;20046;-61
2022/02/26 04:32:49;;;;;;;11.35;2.60;;;;;;;1.66;100.00;99564.41;10354598;28;20053;-61
2022/02/26 04:37:52;;;;;;;17.75;2.70;;;;;;;1.71;100.00;99572.16;10352429;28;20067;-61
2022/02/26 04:42:57;;;;;;;14.70;2.55;;;;;;;1.75;100.00;99584.38;10355989;28;20062;-61
2022/02/26 04:48:00;;;;;;;13.88;2.67;;;;;;;1.76;100.00;99586.09;10357184;28;20068;-62
2022/02/26 04:53:03;;;;;;;18.25;2.75;;;;;;;1.81;100.00;99599.13;10333696;28;20050;-61
2022/02/26 04:58:08;;;;;;;16.38;2.70;;;;;;;1.81;100.00;99594.69;10324744;28;20414;-62
2022/02/26 05:03:11;;;;;;;15.13;2.53;;;;;;;1.88;100.00;99602.34;10310227;28;20042;-61
2022/02/26 05:08:14;;;;;;;10.77;2.22;;;;;;;1.89;100.00;99612.03;10329797;28;20046;-61
2022/02/26 05:13:43;;;;;;;12.73;2.22;;;;;;;1.89;100.00;99617.38;10330035;28;20044;-62
2022/02/26 05:18:46;;;;;;;12.95;2.35;;;;;;;1.91;100.00;99623.47;10338836;28;20360;-61
2022/02/26 05:23:54;;;;;;;14.25;2.58;;;;;;;1.95;100.00;99625.00;10335607;28;20045;-62
2022/02/26 05:28:59;;;;;;;13.07;2.50;;;;;;;1.93;100.00;99629.56;10336602;28;20038;-61
2022/02/26 05:34:03;;;;;;;15.10;2.58;;;;;;;1.93;100.00;99633.06;10337884;28;20053;-61
2022/02/26 05:39:06;;;;;;;12.73;2.38;;;;;;;1.95;100.00;99646.28;10337886;28;20068;-62
2022/02/26 05:44:10;;;;;;;13.80;2.83;;;;;;;1.92;100.00;99649.97;10341206;28;20062;-61
2022/02/26 05:49:13;;;;;;;11.52;2.35;;;;;;;1.91;100.00;99673.97;10343900;28;20455;-60
2022/02/26 05:54:16;;;;;;;15.35;2.85;;;;;;;1.96;100.00;99669.25;10327189;28;20054;-62
2022/02/26 05:59:21;;;;;;;14.52;3.03;;;;;;;1.95;100.00;99670.19;10340647;28;20034;-61
2022/02/26 06:04:24;;;;;;;14.32;2.40;;;;;;;1.96;100.00;99677.25;10347245;28;20050;-61
2022/02/26 06:09:27;;;;;;;12.52;2.50;;;;;;;1.97;100.00;99681.63;10351282;28;20045;-61
2022/02/26 06:14:31;;;;;;;11.00;2.42;;;;;;;2.01;100.00;99685.88;10351181;28;20564;-61
2022/02/26 06:19:35;;;;;;;14.32;2.63;;;;;;;2.00;100.00;99684.13;10350061;28;20060;-61
2022/02/26 06:24:38;;;;;;;14.52;2.60;;;;;;;2.01;100.00;99688.53;10353205;28;20404;-58
2022/02/26 06:29:43;;;;;;;14.80;2.55;;;;;;;2.00;100.00;99710.72;10356863;28;20049;-62
2022/02/26 06:34:47;;;;;;;14.38;2.60;;;;;;;2.04;100.00;99706.97;10352783;22;20141;-84
2022/02/26 06:39:50;;;;;;;15.70;2.80;;;;;;;2.06;100.00;99715.72;10350429;28;20495;-84
2022/02/26 06:44:54;;;;;;;13.27;2.70;;;;;;;2.05;100.00;99723.78;10353300;28;20125;-84
2022/02/26 06:49:57;;;;;;;13.20;2.67;;;;;;;2.06;100.00;99739.66;10334504;28;20054;-85
2022/02/26 06:55:00;;;;;;;11.95;2.38;;;;;;;2.08;100.00;99740.44;10333068;28;20718;-84
2022/02/26 07:00:23;;;;;;;12.73;2.60;;;;;;;2.12;100.00;99747.34;10333981;28;20161;-84
2022/02/26 07:05:26;;;;;;;17.83;3.03;;;;;;;2.17;100.00;99757.75;10338384;28;20050;-84
2022/02/26 07:10:29;;;;;;;14.95;2.80;;;;;;;2.14;100.00;99769.41;10327667;28;20057;-83
2022/02/26 07:15:35;;;;;;;13.75;2.90;;;;;;;2.18;100.00;99774.53;10336137;28;20065;-84
2022/02/26 07:20:38;;;;;;;11.95;2.55;;;;;;;2.20;100.00;99778.88;10333780;28;20168;-83
2022/02/26 07:25:42;;;;;;;10.55;2.60;;;;;;;2.26;100.00;99783.88;10337859;28;20141;-83
2022/02/26 07:30:51;;;;;;;11.65;2.70;;;;;;;2.22;100.00;99787.66;10335645;28;20051;-83
2022/02/26 07:35:55;;;;;;;14.15;2.80;;;;;;;2.32;100.00;99801.34;10337315;28;20157;-84
2022/02/26 07:40:58;;;;;;;15.43;2.70;;;;;;;2.30;100.00;99804.09;10342586;28;20054;-83
2022/02/26 07:46:03;;;;;;;12.02;2.67;;;;;;;2.36;100.00;99815.34;10357335;28;20415;-84
2022/02/26 07:51:07;;;;;;;10.70;2.65;;;;;;;2.39;100.00;99812.53;10354723;28;20038;-84
2022/02/26 07:56:10;;;;;;;14.48;2.72;;;;;;;2.45;100.00;99823.75;10369013;28;20042;-84
2022/02/26 08:01:14;;;;;;;11.77;2.63;;;;;;;2.44;100.00;99837.97;10355604;28;20498;-83
2022/02/26 08:06:18;;;;;;;13.98;2.72;;;;;;;2.50;100.00;99833.31;10355337;28;20049;-84
2022/02/26 08:11:21;;;;;;;13.27;3.08;;;;;;;2.51;100.00;99843.03;10337193;28;20052;-82
2022/02/26 08:16:26;;;;;;;11.07;2.58;;;;;;;2.60;100.00;99839.91;10363896;28;20396;-84
2022/02/26 08:21:33;;;;;;;13.82;2.80;;;;;;;2.65;100.00;99845.00;10344370;28;20046;-83
2022/02/26 08:26:37;;;;;;;16.25;3.25;;;;;;;2.65;100.00;99856.47;10342672;28;20052;-83
2022/02/26 08:31:42;;;;;;;11.88;2.58;;;;;;;2.75;100.00;99855.13;10331749;28;20042;-87
2022/02/26 08:36:45;;;;;;;11.98;2.70;;;;;;;2.76;100.00;99864.81;10314451;28;20058;-85
2022/02/26 08:41:49;;;;;;;12.77;2.67;;;;;;;2.76;100.00;99863.94;10319358;28;20060;-84
2022/02/26 08:46:53;;;;;;;14.38;2.38;;;;;;;2.81;100.00;99877.03;10302949;28;20081;-83
2022/02/26 08:51:56;;;;;;;14.70;2.75;;;;;;;2.78;100.00;99886.03;10309912;28;20074;-84
2022/02/26 08:57:05;;;;;;;12.77;3.03;;;;;;;2.85;100.00;99889.25;10300318;28;20068;-84
2022/02/26 09:02:10;;;;;;;14.73;2.88;;;;;;;2.94;100.00;99883.47;10300236;28;20141;-82
2022/02/26 09:07:13;;;;;;;12.25;2.50;;;;;;;2.98;100.00;99893.03;10289875;28;20051;-84
2022/02/26 09:12:16;;;;;;;15.38;2.83;;;;;;;2.89;100.00;99891.69;10294087;28;20128;-83
2022/02/26 09:17:20;;;;;;;12.02;2.58;;;;;;;3.02;100.00;99899.06;10295491;28;20525;-85
2022/02/26 09:22:23;;;;;;;13.07;2.60;;;;;;;3.10;100.00;99904.03;10305854;28;20053;-84
2022/02/26 09:27:26;;;;;;;12.57;2.90;;;;;;;3.17;100.00;99905.41;10302638;28;20050;-81
2022/02/26 09:32:31;;;;;;;15.80;2.78;;;;;;;3.21;100.00;99907.00;10309471;28;20061;-81
2022/02/26 09:37:34;;;;;;;11.70;2.63;;;;;;;3.22;100.00;99917.56;10308052;28;20567;-81
2022/02/26 09:42:37;;;;;;;13.75;2.80;;;;;;;3.36;100.00;99916.84;10310995;28;20147;-82
2022/02/26 09:47:44;;;;;;;17.25;3.00;;;;;;;3.41;100.00;99924.59;10322018;23;20038;-61
2022/02/26 09:52:50;;;;;;;12.13;2.60;;;;;;;3.55;100.00;99927.44;10334178;28;20038;-62
2022/02/26 09:57:53;;;;;;;9.27;2.13;;;;;;;3.64;100.00;99935.91;10323756;28;20585;-62
2022/02/26 10:02:59;;;;;;;10.38;2.28;;;;;;;3.73;100.00;99923.88;10320929;28;20507;-61
2022/02/26 10:08:18;;;;;;;12.10;2.10;;;;;;;3.77;100.00;99936.13;10323669;28;20053;-62
2022/02/26 10:13:25;;;;;;;10.32;2.30;;;;;;;3.70;100.00;99936.44;10322917;28;20042;-62
2022/02/26 10:18:30;;;;;;;10.60;2.10;;;;;;;3.80;100.00;99938.63;10302850;28;20054;-62
2022/02/26 10:23:33;;;;;;;10.35;2.25;;;;;;;3.89;100.00;99942.59;10330382;28;20103;-62
2022/02/26 10:28:40;;;;;;;10.07;2.15;;;;;;;3.85;100.00;99942.78;10337090;28;20050;-62
2022/02/26 10:33:45;;;;;;;9.70;2.10;;;;;;;3.98;100.00;99950.13;10314332;28;20383;-62
2022/02/26 10:38:48;;;;;;;9.02;2.10;;;;;;;4.12;100.00;99944.06;10327501;28;20061;-61
2022/02/26 10:43:55;;;;;;;9.32;2.30;;;;;;;4.12;100.00;99952.91;10325146;28;20481;-62
2022/02/26 10:49:07;;;;;;;9.00;2.08;;;;;;;4.07;100.00;99959.44;10324249;28;20042;-62
2022/02/26 10:54:18;;;;;;;9.30;2.30;;;;;;;4.14;100.00;99960.84;10320302;28;20038;-62
2022/02/26 10:59:29;;;;;;;10.43;2.17;;;;;;;4.09;100.00;99974.44;10325361;28;20038;-61
2022/02/26 11:04:36;;;;;;;6.63;2.03;;;;;;;4.16;100.00;99970.47;10324090;28;20597;-61
2022/02/26 11:09:41;;;;;;;7.22;2.00;;;;;;;4.25;100.00;99963.81;10322008;28;20049;-62
2022/02/26 11:14:48;;;;;;;6.18;1.70;;;;;;;4.45;100.00;99961.84;10303824;28;20050;-62
2022/02/26 11:19:57;;;;;;;10.40;2.05;;;;;;;4.67;100.00;99958.84;10322929;28;20459;-62
2022/02/26 11:25:01;;;;;;;7.18;1.90;;;;;;;4.75;100.00;99955.75;10327018;28;20081;-62
2022/02/26 11:30:08;;;;;;;8.65;2.42;;;;;;;4.67;100.00;99950.84;10310030;28;20356;-61
2022/02/26 11:35:18;;;;;;;8.15;2.33;;;;;;;4.60;100.00;99947.66;10323570;28;20577;-63
2022/02/26 11:40:24;;;;;;;9.30;1.80;;;;;;;4.82;100.00;99951.78;10335475;28;20034;-63
2022/02/26 11:45:29;;;;;;;8.00;1.90;;;;;;;4.92;100.00;99957.47;10344686;28;20046;-64
2022/02/26 11:50:37;;;;;;;8.75;2.15;;;;;;;4.94;100.00;99948.41;10340651;28;20085;-63
2022/02/26 11:55:43;;;;;;;6.13;2.00;;;;;;;4.90;100.00;99957.53;10337615;28;20042;-66
2022/02/26 12:00:49;;;;;;;9.85;2.22;;;;;;;4.81;100.00;99951.88;10344598;28;20177;-65
2022/02/26 12:05:57;;;;;;;6.75;1.80;;;;;;;4.89;100.00;99950.47;10351032;28;20406;-65
2022/02/26 12:11:00;;;;;;;8.57;1.90;;;;;;;4.86;100.00;99953.34;10327483;28;20070;-63
2022/02/26 12:16:18;;;;;;;8.02;1.80;;;;;;;5.01;100.00;99945.38;10322690;28;20798;-63
2022/02/26 12:21:24;;;;;;;7.35;1.80;;;;;;;5.01;100.00;99953.41;10334746;28;20102;-63
2022/02/26 12:26:41;;;;;;;7.35;1.77;;;;;;;5.16;100.00;99949.84;10350225;28;20521;-63
2022/02/26 12:31:55;;;;;;;8.20;2.08;;;;;;;5.23;100.00;99940.53;10326844;28;20054;-62
2022/02/26 12:37:17;;;;;;;6.82;1.83;;;;;;;5.42;100.00;99935.91;10374050;22;20061;-77
2022/02/26 12:42:21;;;;;;;;;;;;;;;5.18;100.00;99936.41;10401239;28;20073;-76
2022/02/26 12:47:25;;;;;;;5.30;1.63;;;;;;;5.35;100.00;99930.09;10393931;28;19929;-78
2022/02/26 12:52:32;;;;;;;5.70;1.60;;;;;;;5.62;100.00;99914.19;10380779;28;20524;-76
2022/02/26 12:57:36;;;;;;;6.13;1.60;;;;;;;5.72;100.00;99917.16;10374467;28;20074;-77
2022/02/26 13:02:42;;;;;;;5.80;1.70;;;;;;;5.75;100.00;99916.97;10389536;28;20054;-77
2022/02/26 13:07:46;;;;;;;6.32;1.80;;;;;;;5.68;100.00;99926.34;10391220;28;20053;-77
2022/02/26 13:12:49;;;;;;;6.40;1.83;;;;;;;5.61;100.00;99916.94;10378514;28;20168;-76
2022/02/26 13:17:53;;;;;;;9.15;1.70;;;;;;;5.57;100.00;99915.44;10381572;28;20045;-77
2022/02/26 13:23:00;;;;;;;6.05;1.55;;;;;;;5.45;100.00;99925.91;10384061;28;20046;-78
2022/02/26 13:28:03;;;;;;;7.90;1.85;;;;;;;5.70;100.00;99914.59;10370165;28;20045;-77
2022/02/26 13:33:06;;;;;;;6.05;1.80;;;;;;;5.81;100.00;99918.41;10368432;28;20046;-77
2022/02/26 13:38:11;;;;;;;8.15;1.90;;;;;;;5.71;100.00;99902.94;10391154;28;20041;-77
2022/02/26 13:43:14;;;;;;;6.88;1.55;;;;;;;5.85;100.00;99907.44;10371668;28;20522;-77
2022/02/26 13:48:18;;;;;;;5.82;1.67;;;;;;;5.83;100.00;99903.16;10370292;28;20425;-77
2022/02/26 13:53:23;;;;;;;7.15;1.70;;;;;;;5.82;100.00;99899.59;10375967;28;20056;-77
2022/02/26 13:58:28;;;;;;;4.88;1.48;;;;;;;5.78;100.00;99895.41;10375351;28;20072;-77
2022/02/26 14:03:31;;;;;;;6.20;1.65;;;;;;;5.85;100.00;99901.25;10367941;28;20140;-78
2022/02/26 14:08:41;;;;;;;6.25;1.88;;;;;;;5.87;100.00;99885.97;10377364;28;20497;-75
2022/02/26 14:13:47;;;;;;;6.80;1.77;;;;;;;5.81;100.00;99892.56;10370803;28;20056;-76
2022/02/26 14:18:50;;;;;;;5.43;1.50;;;;;;;5.83;100.00;99879.06;10375169;28;20030;-77
2022/02/26 14:23:57;;;;;;;7.90;1.60;;;;;;;6.36;100.00;99881.16;10375839;28;20413;-76
2022/02/26 14:29:05;;;;;;;6.25;1.70;;;;;;;6.60;100.00;99884.09;10382189;28;20052;-76
2022/02/26 14:34:11;;;;;;;6.82;1.65;;;;;;;6.53;100.00;99888.97;10373574;28;20057;-78
2022/02/26 14:39:20;;;;;;;6.95;1.70;;;;;;;6.45;100.00;99889.47;10373216;28;20049;-76
2022/02/26 14:44:24;;;;;;;4.82;1.65;;;;;;;6.45;100.00;99892.16;10377348;28;20136;-77
2022/02/26 14:49:27;;;;;;;6.43;1.55;;;;;;;6.24;100.00;99890.84;10385907;28;20049;-77
2022/02/26 14:54:32;;;;;;;8.15;1.83;;;;;;;6.15;100.00;99885.13;10387410;28;20124;-76
2022/02/26 14:59:35;;;;;;;7.20;1.90;;;;;;;6.29;100.00;99891.44;10393888;28;20049;-79
2022/02/26 15:04:38;;;;;;;7.88;2.40;;;;;;;6.25;100.00;99895.25;10381429;28;20391;-75
2022/02/26 15:09:42;;;;;;;6.20;2.00;;;;;;;6.36;100.00;99900.78;10377637;28;20878;-77
2022/02/26 15:14:46;;;;;;;7.97;1.90;;;;;;;6.42;100.00;99902.19;10381369;28;20045;-78
2022/02/26 15:19:50;;;;;;;7.35;1.90;;;;;;;6.10;100.00;99899.75;10383531;28;20445;-77
2022/02/26 15:24:54;;;;;;;5.65;1.70;;;;;;;5.98;100.00;99898.66;10371395;28;20212;-76
2022/02/26 15:29:58;;;;;;;5.72;1.73;;;;;;;5.91;100.00;99900.00;10377042;28;20054;-76
2022/02/26 15:35:02;;;;;;;7.40;1.92;;;;;;;5.71;100.00;99902.06;10401630;28;20053;-77
2022/02/26 15:40:09;;;;;;;6.75;1.60;;;;;;;5.71;100.00;99899.41;10400884;28;20375;-78
2022/02/26 15:45:12;;;;;;;7.13;2.10;;;;;;;5.67;100.00;99901.41;10396424;28;20045;-79
2022/02/26 15:50:15;;;;;;;7.47;1.90;;;;;;;5.62;100.00;99897.28;10387198;28;20490;-78
2022/02/26 15:55:20;;;;;;;6.35;1.90;;;;;;;5.59;100.00;99900.13;10382414;28;20061;-77
2022/02/26 16:00:23;;;;;;;6.25;1.73;;;;;;;5.60;100.00;99902.75;10381867;28;20454;-77
2022/02/26 16:05:26;;;;;;;8.43;2.00;;;;;;;5.53;100.00;99910.25;10379950;28;20137;-77
2022/02/26 16:10:30;;;;;;;6.72;1.73;;;;;;;5.49;100.00;99907.88;10395042;28;20113;-77
2022/02/26 16:15:33;;;;;;;6.95;1.80;;;;;;;5.46;100.00;99910.72;10390812;28;20142;-77
2022/02/26 16:20:37;;;;;;;7.97;2.10;;;;;;;5.43;100.00;99914.44;10400600;28;20472;-77
2022/02/26 16:25:41;;;;;;;10.40;2.10;;;;;;;5.40;100.00;99930.66;10387270;28;20049;-77
2022/02/26 16:30:44;;;;;;;7.68;1.90;;;;;;;5.45;100.00;99920.56;10394068;28;20054;-77
2022/02/26 16:35:47;;;;;;;10.93;2.20;;;;;;;5.39;100.00;99931.59;10399055;28;20053;-77
2022/02/26 16:40:53;;;;;;;7.95;2.10;;;;;;;5.30;100.00;99932.16;10380552;28;20425;-77
2022/02/26 16:45:56;;;;;;;7.95;2.33;;;;;;;5.21;100.00;99930.88;10390249;28;20164;-77
2022/02/26 16:51:00;;;;;;;9.85;2.40;;;;;;;5.11;100.00;99929.69;10423155;28;20525;-80
2022/02/26 16:56:05;;;;;;;9.77;3.85;;;;;;;5.02;100.00;99941.75;10387679;28;20129;-78
2022/02/26 17:01:08;;;;;;;8.23;2.60;;;;;;;4.89;100.00;99955.81;10383327;28;20038;-77
2022/02/26 17:06:12;;;;;;;8.00;2.42;;;;;;;4.81;100.00;99958.06;10375167;28;20549;-76
2022/02/26 17:11:17;;;;;;;8.02;2.63;;;;;;;4.72;100.00;99961.25;10377925;28;20421;-77
2022/02/26 17:16:20;;;;;;;8.32;2.50;;;;;;;4.66;100.00;99953.59;10395944;28;20057;-77
2022/02/26 17:21:26;;;;;;;8.23;2.40;;;;;;;4.63;100.00;99967.97;10380107;28;20046;-78
2022/02/26 17:26:30;;;;;;;9.88;3.33;;;;;;;4.60;100.00;99966.34;10391925;28;20063;-78
2022/02/26 17:31:37;;;;;;;10.48;3.50;;;;;;;4.58;100.00;99960.22;10394382;28;20100;-76
2022/02/26 17:36:40;;;;;;;7.65;2.70;;;;;;;4.56;100.00;99964.78;10379117;28;20054;-76
2022/02/26 17:41:45;;;;;;;10.38;2.90;;;;;;;4.53;100.00;99956.94;10379456;28;20045;-77
2022/02/26 17:46:48;;;;;;;9.30;2.70;;;;;;;4.48;100.00;99964.34;10386272;28;20054;-77
2022/02/26 17:51:51;;;;;;;7.38;2.50;;;;;;;4.40;100.00;99971.91;10347587;28;20038;-76
2022/02/26 17:56:56;;;;;;;9.25;2.88;;;;;;;4.26;100.00;99980.66;10358449;28;20557;-78
2022/02/26 18:02:09;;;;;;;12.75;3.60;;;;;;;4.05;100.00;99985.34;10356012;28;20041;-75
2022/02/26 18:07:16;;;;;;;10.60;3.13;;;;;;;3.86;100.00;99988.97;10360625;28;20061;-75
2022/02/26 18:12:20;;;;;;;7.82;2.70;;;;;;;3.69;100.00;99998.72;10355863;28;20146;-78
2022/02/26 18:17:23;;;;;;;8.85;2.45;;;;;;;3.53;100.00;100005.75;10357911;28;20034;-76
2022/02/26 18:22:33;;;;;;;10.68;2.50;;;;;;;3.37;100.00;100003.84;10345654;28;20042;-77
2022/02/26 18:27:38;;;;;;;8.65;2.75;;;;;;;3.28;100.00;100012.28;10363100;28;20125;-76
2022/02/26 18:32:46;;;;;;;13.15;3.00;;;;;;;3.21;100.00;100008.22;10347822;28;20065;-76
2022/02/26 18:37:50;;;;;;;9.57;2.70;;;;;;;3.24;100.00;100013.38;10344620;28;20066;-76
2022/02/26 18:42:55;;;;;;;9.45;2.53;;;;;;;3.21;100.00;100022.38;10341767;28;20041;-77
2022/02/26 18:47:58;;;;;;;8.07;2.63;;;;;;;3.18;100.00;100030.50;10347878;28;20425;-77
2022/02/26 18:53:01;;;;;;;8.07;2.25;;;;;;;3.15;100.00;100035.13;10336644;28;20065;-77
2022/02/26 18:58:08;;;;;;;9.90;2.88;;;;;;;3.12;100.00;100035.31;10349082;28;20128;-77
2022/02/26 19:03:13;;;;;;;7.50;2.53;;;;;;;3.10;100.00;100042.50;10348378;28;20721;-76
2022/02/26 19:08:16;;;;;;;7.55;2.55;;;;;;;3.05;100.00;100038.25;10344146;28;20476;-76
2022/02/26 19:13:22;;;;;;;9.32;2.50;;;;;;;2.99;100.00;100051.88;10333761;28;20133;-76
2022/02/26 19:18:27;;;;;;;8.68;2.22;;;;;;;2.93;100.00;100046.81;10342014;28;20508;-76
2022/02/26 19:23:36;;;;;;;7.63;2.22;;;;;;;2.85;100.00;100038.34;10345877;28;20125;-76
2022/02/26 19:28:41;;;;;;;10.10;2.50;;;;;;;2.77;100.00;100046.66;10357982;28;20054;-76
2022/02/26 19:33:44;;;;;;;7.85;2.50;;;;;;;2.71;100.00;100047.81;10344837;28;20038;-77
2022/02/26 19:38:47;;;;;;;8.25;2.13;;;;;;;2.67;100.00;100046.22;10338666;28;20057;-75
2022/02/26 19:43:52;;;;;;;7.97;2.30;;;;;;;2.66;100.00;100046.31;10351054;28;20044;-76
2022/02/26 19:48:55;;;;;;;7.05;2.20;;;;;;;2.60;100.00;100055.44;10347662;28;20056;-75
2022/02/26 19:53:58;;;;;;;7.70;2.30;;;;;;;2.56;100.00;100053.84;10346905;28;20047;-76
2022/02/26 19:59:03;;;;;;;6.20;2.10;;;;;;;2.55;100.00;100046.78;10350755;28;20042;-76
2022/02/26 20:04:07;;;;;;;6.70;1.85;;;;;;;2.51;100.00;100053.19;10350824;28;20042;-77
2022/02/26 20:09:10;;;;;;;8.13;2.60;;;;;;;2.46;100.00;100048.94;10353484;28;20046;-77
2022/02/26 20:14:14;;;;;;;6.10;2.30;;;;;;;2.41;100.00;100044.75;10352706;28;20042;-77
2022/02/26 20:19:18;;;;;;;8.50;2.55;;;;;;;2.36;100.00;100049.41;10375602;28;20195;-76
2022/02/26 20:24:21;;;;;;;8.35;2.22;;;;;;;2.32;100.00;100051.34;10355267;28;20517;-76
2022/02/26 20:29:25;;;;;;;8.48;2.30;;;;;;;2.21;100.00;100053.63;10348503;28;20038;-77
2022/02/26 20:34:30;;;;;;;8.90;2.58;;;;;;;2.17;100.00;100058.22;10374655;28;20054;-76
2022/02/26 20:39:38;;;;;;;5.57;2.10;;;;;;;2.00;100.00;100065.13;10351569;28;20165;-77
2022/02/26 20:44:43;;;;;;;8.57;3.00;;;;;;;1.81;100.00;100064.19;10358200;28;20616;-78
2022/02/26 20:49:48;;;;;;;11.02;3.88;;;;;;;1.74;100.00;100066.25;10372254;28;20470;-77
2022/02/26 20:54:54;;;;;;;12.77;7.03;;;;;;;1.51;100.00;100075.19;10353063;28;20050;-78
2022/02/26 20:59:58;;;;;;;9.18;4.32;;;;;;;1.36;100.00;100081.94;10355143;28;20053;-77
2022/02/26 21:05:01;;;;;;;9.52;4.72;;;;;;;1.33;100.00;100076.78;10366095;28;20149;-78
2022/02/26 21:10:05;;;;;;;12.27;6.30;;;;;;;1.25;100.00;100063.81;10396782;28;20050;-80
2022/02/26 21:15:11;;;;;;;5.85;2.38;;;;;;;1.17;100.00;100079.19;10358431;28;20339;-77
2022/02/26 21:20:14;;;;;;;7.15;2.28;;;;;;;1.24;100.00;100083.31;10358931;28;20100;-79
2022/02/26 21:25:19;;;;;;;18.02;10.00;;;;;;;1.22;100.00;100088.72;10383716;28;20045;-78
2022/02/26 21:30:24;;;;;;;32.60;16.77;;;;;;;1.21;100.00;100083.44;10354978;28;20049;-78
2022/02/26 21:35:27;;;;;;;10.70;4.80;;;;;;;1.18;100.00;100089.75;10316540;28;1106309;-78
2022/02/26 21:40:31;;;;;;;9.13;3.80;;;;;;;1.25;100.00;100089.47;10353555;28;20503;-78
2022/02/26 21:45:35;;;;;;;8.00;2.75;;;;;;;1.22;100.00;100086.06;10393004;28;20041;-79
2022/02/26 21:50:38;;;;;;;7.47;2.30;;;;;;;1.25;100.00;100085.06;10410036;28;20487;-79
2022/02/26 21:55:42;;;;;;;6.80;2.28;;;;;;;1.26;100.00;100091.22;10361598;28;20081;-79
2022/02/26 22:00:47;;;;;;;4.68;2.05;;;;;;;1.26;100.00;100085.91;10345644;28;20053;-79
2022/02/26 22:05:50;;;;;;;8.88;2.80;;;;;;;1.16;100.00;100086.28;10398464;28;20046;-79
2022/02/26 22:10:53;;;;;;;6.20;2.47;;;;;;;1.07;100.00;100081.34;10366394;28;20546;-78
2022/02/26 22:15:58;;;;;;;7.63;2.70;;;;;;;0.97;100.00;100074.66;10361958;28;20042;-79
2022/02/26 22:21:01;;;;;;;8.27;3.20;;;;;;;0.88;100.00;100082.03;10381375;28;20677;-79
2022/02/26 22:26:05;;;;;;;12.30;5.97;;;;;;;0.75;100.00;100083.44;10363594;28;20057;-79
2022/02/26 22:31:09;;;;;;;12.85;5.55;;;;;;;0.60;100.00;100093.69;10371970;28;20050;-79
2022/02/26 22:36:14;;;;;;;10.27;4.60;;;;;;;0.40;100.00;100106.81;10372322;28;20080;-80
2022/02/26 22:41:19;;;;;;;8.90;3.45;;;;;;;0.23;100.00;100110.91;10369224;28;20449;-80
2022/02/26 22:46:24;;;;;;;6.95;2.83;;;;;;;0.05;100.00;100123.03;10382563;28;20076;-80
2022/02/26 22:51:31;;;;;;;7.90;3.30;;;;;;;-0.05;100.00;100111.00;10400077;28;20145;-80
2022/02/26 22:56:38;;;;;;;7.45;3.17;;;;;;;-0.14;100.00;100106.88;10358468;28;20050;-80
2022/02/26 23:01:42;;;;;;;8.35;2.85;;;;;;;-0.18;100.00;100110.56;10346825;28;20499;-77
2022/02/26 23:06:45;;;;;;;8.73;3.25;;;;;;;-0.17;100.00;100107.88;10351569;28;20070;-78
2022/02/26 23:11:48;;;;;;;8.18;3.13;;;;;;;-0.13;100.00;100107.75;10363853;28;20077;-77
2022/02/26 23:16:53;;;;;;;10.15;3.65;;;;;;;-0.11;100.00;100116.50;10335793;28;20399;-77
2022/02/26 23:21:55;;;;;;;8.25;3.47;;;;;;;-0.07;100.00;100105.78;10352120;28;20045;-78
2022/02/26 23:26:59;;;;;;;9.10;3.58;;;;;;;-0.05;100.00;100111.88;10352381;28;20053;-78